RYR24P EGBB-EGPF
Flight info
| Callsign | RYR24P |
|---|---|
| Flight time | 0h 45m |
| Altitude | 28000 |
| Route | LUVUM DCT TNT N57 POL/N0407F240 N601 RIBEL DCT ASLIB |
| Aircraft | B738/M-SDE2E3FGHIRWXY/LB1 |
Departure
| Time | 2026-05-05 13:49 |
|---|---|
| Airport | Birmingham Airport (EGBB) |
Arrival
| Time | 2026-05-05 14:34 |
|---|---|
| Airport | Glasgow Airport (EGPF) |
| Time | Latitude | Longitude | Altitude | Speed | Heading |
|---|---|---|---|---|---|
| 2026-05-05 13:33 | 52.45457 | -1.73423 | 322 ft | 0 kts | 146° |
| 2026-05-05 13:41 | 52.45465 | -1.73433 | 322 ft | 4 kts | 146° |
| 2026-05-05 13:41 | 52.45487 | -1.73457 | 320 ft | 3 kts | 146° |
| 2026-05-05 13:41 | 52.45507 | -1.73475 | 321 ft | 4 kts | 181° |
| 2026-05-05 13:42 | 52.45527 | -1.73459 | 319 ft | 4 kts | 233° |
| 2026-05-05 13:42 | 52.45535 | -1.73441 | 321 ft | 1 kts | 236° |
| 2026-05-05 13:42 | 52.45536 | -1.73439 | 321 ft | 0 kts | 236° |
| 2026-05-05 13:44 | 52.45527 | -1.73460 | 319 ft | 5 kts | 236° |
| 2026-05-05 13:44 | 52.45494 | -1.73540 | 322 ft | 12 kts | 236° |
| 2026-05-05 13:45 | 52.45439 | -1.73672 | 322 ft | 15 kts | 236° |
| 2026-05-05 13:45 | 52.45383 | -1.73808 | 322 ft | 14 kts | 236° |
| 2026-05-05 13:45 | 52.45330 | -1.73937 | 321 ft | 13 kts | 234° |
| 2026-05-05 13:45 | 52.45249 | -1.73939 | 321 ft | 13 kts | 147° |
| 2026-05-05 13:46 | 52.45175 | -1.73859 | 322 ft | 13 kts | 144° |
| 2026-05-05 13:46 | 52.45103 | -1.73779 | 322 ft | 12 kts | 153° |
| 2026-05-05 13:46 | 52.45024 | -1.73729 | 322 ft | 12 kts | 153° |
| 2026-05-05 13:46 | 52.44955 | -1.73655 | 322 ft | 12 kts | 149° |
| 2026-05-05 13:47 | 52.44877 | -1.73660 | 321 ft | 11 kts | 196° |
| 2026-05-05 13:47 | 52.44802 | -1.73695 | 322 ft | 11 kts | 194° |
| 2026-05-05 13:47 | 52.44734 | -1.73745 | 322 ft | 11 kts | 224° |
| 2026-05-05 13:47 | 52.44690 | -1.73842 | 325 ft | 10 kts | 236° |
| 2026-05-05 13:48 | 52.44653 | -1.73947 | 324 ft | 11 kts | 264° |
| 2026-05-05 13:48 | 52.44706 | -1.74049 | 324 ft | 21 kts | 324° |
| 2026-05-05 13:48 | 52.45014 | -1.74391 | 327 ft | 86 kts | 326° |
| 2026-05-05 13:48 | 52.45669 | -1.75118 | 322 ft | 139 kts | 326° |
| 2026-05-05 13:49 | 52.46568 | -1.76101 | 622 ft | 162 kts | 328° |
| 2026-05-05 13:49 | 52.47597 | -1.77165 | 1055 ft | 187 kts | 331° |
| 2026-05-05 13:49 | 52.48721 | -1.78233 | 1840 ft | 192 kts | 331° |
| 2026-05-05 13:49 | 52.49953 | -1.79358 | 2175 ft | 209 kts | 339° |
| 2026-05-05 13:50 | 52.51404 | -1.79703 | 2634 ft | 216 kts | 3° |
| 2026-05-05 13:50 | 52.52898 | -1.79369 | 3260 ft | 219 kts | 9° |
| 2026-05-05 13:50 | 52.54431 | -1.78923 | 3841 ft | 227 kts | 9° |
| 2026-05-05 13:50 | 52.56025 | -1.78465 | 4370 ft | 242 kts | 10° |
| 2026-05-05 13:51 | 52.57771 | -1.77978 | 4594 ft | 267 kts | 9° |
| 2026-05-05 13:51 | 52.59645 | -1.77457 | 5157 ft | 277 kts | 11° |
| 2026-05-05 13:51 | 52.61566 | -1.76887 | 5834 ft | 284 kts | 10° |
| 2026-05-05 13:51 | 52.63539 | -1.76383 | 6531 ft | 290 kts | 9° |
| 2026-05-05 13:52 | 52.65554 | -1.75929 | 7250 ft | 293 kts | 7° |
| 2026-05-05 13:52 | 52.67580 | -1.75496 | 8002 ft | 295 kts | 6° |
| 2026-05-05 13:52 | 52.69596 | -1.75074 | 8746 ft | 297 kts | 6° |
| 2026-05-05 13:52 | 52.71695 | -1.74637 | 9442 ft | 302 kts | 5° |
| 2026-05-05 13:53 | 52.73759 | -1.74184 | 10136 ft | 304 kts | 5° |
| 2026-05-05 13:53 | 52.75869 | -1.73709 | 10782 ft | 309 kts | 6° |
| 2026-05-05 13:53 | 52.78016 | -1.73222 | 11387 ft | 314 kts | 6° |
| 2026-05-05 13:53 | 52.80195 | -1.72728 | 12067 ft | 317 kts | 6° |
| 2026-05-05 13:54 | 52.82393 | -1.72229 | 12752 ft | 321 kts | 6° |
| 2026-05-05 13:54 | 52.84619 | -1.71725 | 13443 ft | 325 kts | 6° |
| 2026-05-05 13:54 | 52.86874 | -1.71214 | 14102 ft | 329 kts | 6° |
| 2026-05-05 13:54 | 52.89155 | -1.70697 | 14734 ft | 333 kts | 6° |
| 2026-05-05 13:55 | 52.91464 | -1.70174 | 15376 ft | 337 kts | 5° |
| 2026-05-05 13:55 | 52.93805 | -1.69642 | 16014 ft | 341 kts | 5° |
| 2026-05-05 13:55 | 52.96176 | -1.69103 | 16658 ft | 345 kts | 5° |
| 2026-05-05 13:55 | 52.98571 | -1.68559 | 17322 ft | 349 kts | 5° |
| 2026-05-05 13:56 | 53.00957 | -1.68015 | 17980 ft | 352 kts | 5° |
| 2026-05-05 13:56 | 53.03405 | -1.67513 | 18588 ft | 355 kts | 360° |
| 2026-05-05 13:56 | 53.05866 | -1.67687 | 19129 ft | 354 kts | 348° |
| 2026-05-05 13:56 | 53.08260 | -1.68636 | 19683 ft | 354 kts | 337° |
| 2026-05-05 13:57 | 53.10575 | -1.70092 | 20261 ft | 356 kts | 335° |
| 2026-05-05 13:57 | 53.12887 | -1.71590 | 20808 ft | 360 kts | 335° |
| 2026-05-05 13:57 | 53.15246 | -1.73089 | 21341 ft | 364 kts | 335° |
| 2026-05-05 13:57 | 53.17630 | -1.74583 | 21885 ft | 367 kts | 336° |
| 2026-05-05 13:58 | 53.20034 | -1.76079 | 22428 ft | 370 kts | 336° |
| 2026-05-05 13:58 | 53.22432 | -1.77569 | 22927 ft | 374 kts | 336° |
| 2026-05-05 13:58 | 53.24881 | -1.79092 | 23442 ft | 378 kts | 336° |
| 2026-05-05 13:58 | 53.27357 | -1.80635 | 23885 ft | 381 kts | 336° |
| 2026-05-05 13:59 | 53.32358 | -1.83755 | 24826 ft | 385 kts | 336° |
| 2026-05-05 13:59 | 53.34025 | -1.84798 | 25128 ft | 386 kts | 336° |
| 2026-05-05 14:00 | 53.39934 | -1.88501 | 26137 ft | 392 kts | 337° |
| 2026-05-05 14:00 | 53.41660 | -1.89585 | 26426 ft | 394 kts | 337° |
| 2026-05-05 14:00 | 53.44233 | -1.91203 | 26844 ft | 396 kts | 337° |
| 2026-05-05 14:00 | 53.46819 | -1.92830 | 27251 ft | 398 kts | 338° |
| 2026-05-05 14:01 | 53.49428 | -1.94474 | 27661 ft | 401 kts | 338° |
| 2026-05-05 14:01 | 53.52012 | -1.96106 | 28005 ft | 404 kts | 338° |
| 2026-05-05 14:01 | 53.54676 | -1.97789 | 27994 ft | 414 kts | 338° |
| 2026-05-05 14:01 | 53.57399 | -1.99510 | 28015 ft | 422 kts | 338° |
| 2026-05-05 14:02 | 53.63019 | -2.03066 | 28010 ft | 439 kts | 338° |
| 2026-05-05 14:02 | 53.68833 | -2.06755 | 28016 ft | 451 kts | 338° |
| 2026-05-05 14:03 | 53.74713 | -2.10498 | 28007 ft | 452 kts | 337° |
| 2026-05-05 14:03 | 53.77596 | -2.12431 | 27995 ft | 451 kts | 336° |
| 2026-05-05 14:03 | 53.80487 | -2.14450 | 28004 ft | 449 kts | 335° |
| 2026-05-05 14:04 | 53.86256 | -2.18470 | 28002 ft | 446 kts | 336° |
| 2026-05-05 14:04 | 53.91994 | -2.22405 | 28006 ft | 443 kts | 336° |
| 2026-05-05 14:05 | 53.97705 | -2.26315 | 28029 ft | 442 kts | 335° |
| 2026-05-05 14:05 | 54.03363 | -2.30426 | 28015 ft | 440 kts | 330° |
| 2026-05-05 14:06 | 54.08696 | -2.35387 | 28020 ft | 439 kts | 328° |
| 2026-05-05 14:06 | 54.14012 | -2.40529 | 28022 ft | 440 kts | 328° |
| 2026-05-05 14:07 | 54.19366 | -2.45641 | 28016 ft | 441 kts | 328° |
| 2026-05-05 14:07 | 54.24733 | -2.50722 | 28034 ft | 442 kts | 328° |
| 2026-05-05 14:08 | 54.30115 | -2.55811 | 28021 ft | 442 kts | 328° |
| 2026-05-05 14:08 | 54.35507 | -2.60924 | 28017 ft | 441 kts | 328° |
| 2026-05-05 14:09 | 54.40873 | -2.66031 | 28019 ft | 441 kts | 327° |
| 2026-05-05 14:09 | 54.46198 | -2.71116 | 28019 ft | 440 kts | 327° |
| 2026-05-05 14:10 | 54.51554 | -2.76246 | 28024 ft | 440 kts | 327° |
| 2026-05-05 14:10 | 54.56895 | -2.81378 | 28017 ft | 439 kts | 327° |
| 2026-05-05 14:11 | 54.62230 | -2.86518 | 28033 ft | 439 kts | 327° |
| 2026-05-05 14:11 | 54.67554 | -2.91664 | 28015 ft | 438 kts | 327° |
| 2026-05-05 14:12 | 54.70180 | -2.94205 | 28006 ft | 425 kts | 327° |
| 2026-05-05 14:12 | 54.72705 | -2.96651 | 27678 ft | 418 kts | 327° |
| 2026-05-05 14:12 | 54.75219 | -2.99094 | 27267 ft | 413 kts | 327° |
| 2026-05-05 14:12 | 54.77709 | -3.01519 | 26843 ft | 408 kts | 327° |
| 2026-05-05 14:13 | 54.80170 | -3.03918 | 26383 ft | 404 kts | 327° |
| 2026-05-05 14:13 | 54.82613 | -3.06301 | 25947 ft | 400 kts | 327° |
| 2026-05-05 14:13 | 54.85027 | -3.08658 | 25567 ft | 396 kts | 327° |
| 2026-05-05 14:13 | 54.87417 | -3.10992 | 25196 ft | 392 kts | 327° |
| 2026-05-05 14:14 | 54.89788 | -3.13311 | 24822 ft | 390 kts | 327° |
| 2026-05-05 14:14 | 54.92159 | -3.15637 | 24462 ft | 392 kts | 327° |
| 2026-05-05 14:14 | 54.94545 | -3.17980 | 24095 ft | 395 kts | 327° |
| 2026-05-05 14:14 | 54.96935 | -3.20328 | 23728 ft | 392 kts | 327° |
| 2026-05-05 14:15 | 54.99304 | -3.22657 | 23268 ft | 390 kts | 328° |
| 2026-05-05 14:15 | 55.01653 | -3.24969 | 22869 ft | 386 kts | 327° |
| 2026-05-05 14:15 | 55.03950 | -3.27237 | 22489 ft | 382 kts | 327° |
| 2026-05-05 14:15 | 55.06252 | -3.29515 | 22114 ft | 378 kts | 328° |
| 2026-05-05 14:16 | 55.08532 | -3.31776 | 21761 ft | 374 kts | 328° |
| 2026-05-05 14:16 | 55.10791 | -3.34018 | 21392 ft | 372 kts | 328° |
| 2026-05-05 14:16 | 55.13040 | -3.36254 | 21040 ft | 369 kts | 328° |
| 2026-05-05 14:16 | 55.15268 | -3.38471 | 20691 ft | 367 kts | 328° |
| 2026-05-05 14:17 | 55.17490 | -3.40685 | 20336 ft | 366 kts | 328° |
| 2026-05-05 14:17 | 55.19674 | -3.42863 | 19967 ft | 365 kts | 328° |
| 2026-05-05 14:17 | 55.21889 | -3.45076 | 19416 ft | 369 kts | 328° |
| 2026-05-05 14:17 | 55.24129 | -3.47315 | 18864 ft | 370 kts | 328° |
| 2026-05-05 14:18 | 55.26366 | -3.49554 | 18302 ft | 371 kts | 328° |
| 2026-05-05 14:18 | 55.28608 | -3.51799 | 17669 ft | 371 kts | 328° |
| 2026-05-05 14:18 | 55.30847 | -3.54046 | 17043 ft | 370 kts | 328° |
| 2026-05-05 14:18 | 55.33076 | -3.56285 | 16481 ft | 368 kts | 328° |
| 2026-05-05 14:19 | 55.35290 | -3.58512 | 15923 ft | 367 kts | 328° |
| 2026-05-05 14:19 | 55.37500 | -3.60739 | 15363 ft | 365 kts | 328° |
| 2026-05-05 14:19 | 55.39701 | -3.62959 | 14810 ft | 364 kts | 328° |
| 2026-05-05 14:19 | 55.41892 | -3.65172 | 14259 ft | 362 kts | 328° |
| 2026-05-05 14:20 | 55.44069 | -3.67374 | 13709 ft | 360 kts | 328° |
| 2026-05-05 14:20 | 55.46238 | -3.69571 | 13111 ft | 358 kts | 328° |
| 2026-05-05 14:20 | 55.48387 | -3.71750 | 12550 ft | 355 kts | 328° |
| 2026-05-05 14:20 | 55.50525 | -3.73918 | 11990 ft | 353 kts | 328° |
| 2026-05-05 14:21 | 55.52642 | -3.76072 | 11452 ft | 350 kts | 328° |
| 2026-05-05 14:21 | 55.54745 | -3.78213 | 10920 ft | 347 kts | 327° |
| 2026-05-05 14:21 | 55.56832 | -3.80339 | 10397 ft | 345 kts | 327° |
| 2026-05-05 14:21 | 55.58906 | -3.82457 | 9923 ft | 341 kts | 328° |
| 2026-05-05 14:22 | 55.60902 | -3.84496 | 9942 ft | 323 kts | 327° |
| 2026-05-05 14:22 | 55.62804 | -3.86439 | 9832 ft | 310 kts | 328° |
| 2026-05-05 14:22 | 55.64635 | -3.88318 | 9762 ft | 298 kts | 328° |
| 2026-05-05 14:22 | 55.66397 | -3.90123 | 9625 ft | 287 kts | 327° |
| 2026-05-05 14:23 | 55.68071 | -3.91845 | 9524 ft | 276 kts | 325° |
| 2026-05-05 14:23 | 55.69426 | -3.94096 | 9432 ft | 262 kts | 301° |
| 2026-05-05 14:23 | 55.70174 | -3.96947 | 9371 ft | 251 kts | 285° |
| 2026-05-05 14:23 | 55.70455 | -3.99945 | 9267 ft | 243 kts | 278° |
| 2026-05-05 14:24 | 55.70577 | -4.02914 | 8998 ft | 241 kts | 271° |
| 2026-05-05 14:24 | 55.70530 | -4.05902 | 8708 ft | 241 kts | 269° |
| 2026-05-05 14:24 | 55.70459 | -4.08874 | 8424 ft | 239 kts | 270° |
| 2026-05-05 14:24 | 55.70379 | -4.11807 | 8167 ft | 238 kts | 269° |
| 2026-05-05 14:25 | 55.70301 | -4.14738 | 7911 ft | 237 kts | 268° |
| 2026-05-05 14:25 | 55.70226 | -4.17648 | 7653 ft | 236 kts | 269° |
| 2026-05-05 14:25 | 55.70154 | -4.20555 | 7394 ft | 236 kts | 269° |
| 2026-05-05 14:25 | 55.70080 | -4.23446 | 7147 ft | 235 kts | 269° |
| 2026-05-05 14:26 | 55.70003 | -4.26337 | 6884 ft | 235 kts | 268° |
| 2026-05-05 14:26 | 55.69938 | -4.29230 | 6631 ft | 235 kts | 269° |
| 2026-05-05 14:26 | 55.69872 | -4.32122 | 6398 ft | 234 kts | 269° |
| 2026-05-05 14:26 | 55.69802 | -4.35005 | 6134 ft | 234 kts | 269° |
| 2026-05-05 14:27 | 55.69733 | -4.37881 | 5860 ft | 234 kts | 269° |
| 2026-05-05 14:27 | 55.69672 | -4.40762 | 5590 ft | 233 kts | 269° |
| 2026-05-05 14:27 | 55.69612 | -4.43633 | 5336 ft | 233 kts | 269° |
| 2026-05-05 14:27 | 55.69551 | -4.46499 | 5077 ft | 232 kts | 269° |
| 2026-05-05 14:28 | 55.69494 | -4.49360 | 4801 ft | 232 kts | 269° |
| 2026-05-05 14:28 | 55.69421 | -4.52214 | 4534 ft | 231 kts | 269° |
| 2026-05-05 14:28 | 55.69345 | -4.55065 | 4276 ft | 231 kts | 269° |
| 2026-05-05 14:28 | 55.69267 | -4.57865 | 4057 ft | 228 kts | 269° |
| 2026-05-05 14:29 | 55.69187 | -4.60645 | 3807 ft | 223 kts | 269° |
| 2026-05-05 14:29 | 55.69428 | -4.63260 | 3527 ft | 212 kts | 300° |
| 2026-05-05 14:29 | 55.70408 | -4.65050 | 3280 ft | 199 kts | 335° |
| 2026-05-05 14:29 | 55.71678 | -4.65873 | 3066 ft | 193 kts | 343° |
| 2026-05-05 14:30 | 55.72979 | -4.66644 | 3040 ft | 198 kts | 345° |
| 2026-05-05 14:30 | 55.74299 | -4.66700 | 3010 ft | 186 kts | 25° |
| 2026-05-05 14:30 | 55.75283 | -4.65299 | 3035 ft | 180 kts | 44° |
| 2026-05-05 14:30 | 55.76254 | -4.63831 | 2965 ft | 187 kts | 41° |
| 2026-05-05 14:31 | 55.77194 | -4.62150 | 2726 ft | 193 kts | 47° |
| 2026-05-05 14:31 | 55.78099 | -4.60416 | 2473 ft | 189 kts | 47° |
| 2026-05-05 14:31 | 55.78975 | -4.58755 | 2212 ft | 184 kts | 47° |
| 2026-05-05 14:31 | 55.79841 | -4.57123 | 1968 ft | 181 kts | 46° |
| 2026-05-05 14:32 | 55.80697 | -4.55513 | 1746 ft | 175 kts | 46° |
| 2026-05-05 14:32 | 55.81512 | -4.53983 | 1484 ft | 166 kts | 45° |
| 2026-05-05 14:32 | 55.82279 | -4.52543 | 1278 ft | 153 kts | 46° |
| 2026-05-05 14:32 | 55.82980 | -4.51222 | 1087 ft | 138 kts | 47° |
| 2026-05-05 14:33 | 55.83642 | -4.49990 | 966 ft | 137 kts | 49° |
| 2026-05-05 14:33 | 55.84318 | -4.48852 | 784 ft | 132 kts | 48° |
| 2026-05-05 14:33 | 55.84942 | -4.47681 | 612 ft | 127 kts | 52° |
| 2026-05-05 14:33 | 55.85532 | -4.46465 | 401 ft | 130 kts | 52° |
| 2026-05-05 14:34 | 55.86151 | -4.45275 | 203 ft | 129 kts | 47° |
| 2026-05-05 14:34 | 55.86743 | -4.44153 | 48 ft | 116 kts | 48° |
| 2026-05-05 14:34 | 55.87247 | -4.43228 | 33 ft | 86 kts | 46° |
| 2026-05-05 14:34 | 55.87522 | -4.42707 | 37 ft | 39 kts | 46° |
| 2026-05-05 14:35 | 55.87684 | -4.42404 | 35 ft | 24 kts | 47° |
| 2026-05-05 14:35 | 55.87747 | -4.42246 | 31 ft | 13 kts | 94° |
| 2026-05-05 14:35 | 55.87679 | -4.42147 | 29 ft | 13 kts | 175° |
| 2026-05-05 14:35 | 55.87596 | -4.42195 | 30 ft | 13 kts | 221° |
| 2026-05-05 14:36 | 55.87535 | -4.42305 | 32 ft | 12 kts | 227° |
| 2026-05-05 14:36 | 55.87476 | -4.42416 | 34 ft | 12 kts | 227° |
| 2026-05-05 14:36 | 55.87418 | -4.42526 | 32 ft | 13 kts | 226° |
| 2026-05-05 14:36 | 55.87346 | -4.42608 | 33 ft | 12 kts | 202° |
| 2026-05-05 14:37 | 55.87267 | -4.42661 | 33 ft | 12 kts | 199° |
| 2026-05-05 14:37 | 55.87181 | -4.42717 | 32 ft | 16 kts | 201° |
| 2026-05-05 14:37 | 55.87071 | -4.42793 | 32 ft | 17 kts | 200° |
| 2026-05-05 14:37 | 55.86964 | -4.42869 | 31 ft | 16 kts | 205° |
| 2026-05-05 14:38 | 55.86866 | -4.42957 | 32 ft | 16 kts | 218° |
| 2026-05-05 14:38 | 55.86826 | -4.43130 | 32 ft | 15 kts | 255° |
| 2026-05-05 14:38 | 55.86776 | -4.43272 | 32 ft | 14 kts | 189° |
| 2026-05-05 14:38 | 55.86699 | -4.43246 | 32 ft | 8 kts | 181° |
| 2026-05-05 14:39 | 55.86673 | -4.43308 | 32 ft | 3 kts | 251° |
| 2026-05-05 14:39 | 55.86672 | -4.43315 | 32 ft | 0 kts | 252° |